Time;durP1;ratioP1;P1;durP2;ratioP2;P2;SDS_P1;SDS_P2;PMS_P1;PMS_P2;Temp;Humidity;BMP_temperature;BMP_pressure;BME280_temperature;BME280_humidity;BME280_pressure;Samples;Min_cycle;Max_cycle;Signal;HPM_P1;HPM_P2
2023/11/27 00:01:08;;;;;;;5.20;4.23;;;;;;;2.11;100.00;151909.13;4988582;28;20458;-83
2023/11/27 00:03:34;;;;;;;5.00;4.50;;;;;;;2.10;100.00;151905.25;4989519;28;20504;-84
2023/11/27 00:06:01;;;;;;;6.60;5.57;;;;;;;2.10;100.00;151906.53;4988324;28;20515;-84
2023/11/27 00:08:27;;;;;;;6.40;5.17;;;;;;;2.08;100.00;151901.41;4988412;28;20466;-84
2023/11/27 00:10:54;;;;;;;6.77;4.60;;;;;;;2.07;100.00;151898.81;4988305;28;20848;-83
2023/11/27 00:13:21;;;;;;;6.90;4.13;;;;;;;2.04;100.00;151891.09;4992904;28;20473;-84
2023/11/27 00:15:49;;;;;;;5.50;3.90;;;;;;;2.03;100.00;151888.56;4965416;28;20561;-84
2023/11/27 00:18:15;;;;;;;5.10;3.87;;;;;;;1.99;100.00;151876.97;4988968;28;20455;-84
2023/11/27 00:20:42;;;;;;;6.27;4.50;;;;;;;1.99;100.00;151878.25;4990664;28;20995;-83
2023/11/27 00:23:09;;;;;;;8.47;5.30;;;;;;;1.97;100.00;151873.13;4974098;28;20841;-84
2023/11/27 00:25:36;;;;;;;5.60;4.30;;;;;;;1.98;100.00;151875.72;4988799;28;20497;-84
2023/11/27 00:28:03;;;;;;;4.93;4.20;;;;;;;1.97;100.00;151871.81;4992693;28;20468;-84
2023/11/27 00:30:29;;;;;;;4.43;3.57;;;;;;;1.97;100.00;151873.13;4990135;28;20446;-84
2023/11/27 00:32:57;;;;;;;6.70;4.83;;;;;;;1.96;100.00;151870.53;4971953;28;20471;-84
2023/11/27 00:35:24;;;;;;;5.87;3.57;;;;;;;1.95;100.00;151868.00;4989491;28;20461;-84
2023/11/27 00:37:51;;;;;;;4.77;3.93;;;;;;;1.93;100.00;151862.88;4990028;28;20499;-84
2023/11/27 00:40:18;;;;;;;4.20;3.43;;;;;;;1.90;100.00;151855.16;4989393;28;20913;-83
2023/11/27 00:42:44;;;;;;;5.00;4.07;;;;;;;1.90;100.00;151855.16;4985254;28;20465;-84
2023/11/27 00:45:11;;;;;;;5.23;4.20;;;;;;;1.94;100.00;151864.09;4989200;28;20464;-84
2023/11/27 00:47:38;;;;;;;6.00;4.50;;;;;;;1.90;100.00;151855.16;4989390;28;20990;-84
2023/11/27 00:50:08;;;;;;;7.00;4.90;;;;;;;1.91;100.00;151856.44;4987200;28;20441;-84
2023/11/27 00:52:34;;;;;;;5.77;3.90;;;;;;;1.90;100.00;151853.84;4986204;28;20557;-83
2023/11/27 00:55:01;;;;;;;4.83;3.57;;;;;;;1.89;100.00;151852.56;4990137;28;20442;-84
2023/11/27 00:57:27;;;;;;;4.40;3.67;;;;;;;1.90;100.00;151855.16;4989624;28;20481;-84
2023/11/27 00:59:54;;;;;;;4.80;4.20;;;;;;;1.89;100.00;151852.56;4987615;28;20928;-84
2023/11/27 01:02:21;;;;;;;4.80;3.60;;;;;;;1.86;100.00;151844.84;4987228;28;20544;-84
2023/11/27 01:04:47;;;;;;;6.73;4.00;;;;;;;1.84;100.00;151841.00;4989468;28;20520;-84
2023/11/27 01:07:15;;;;;;;4.70;4.20;;;;;;;1.85;100.00;151843.53;4988918;28;20481;-84
2023/11/27 01:09:42;;;;;;;4.93;3.50;;;;;;;1.85;100.00;151842.28;4985629;28;20461;-85
2023/11/27 01:12:09;;;;;;;5.87;4.50;;;;;;;1.85;100.00;151842.28;4972994;28;20437;-84
2023/11/27 01:14:36;;;;;;;4.97;4.40;;;;;;;1.85;100.00;151843.53;4990961;28;20460;-83
2023/11/27 01:17:03;;;;;;;4.73;4.00;;;;;;;1.87;100.00;151847.41;4984005;28;20469;-84
2023/11/27 01:19:29;;;;;;;4.97;4.10;;;;;;;1.83;100.00;151837.13;4988314;28;20967;-84
2023/11/27 01:21:56;;;;;;;5.73;4.10;;;;;;;1.83;100.00;151837.13;4988712;28;20449;-84
2023/11/27 01:24:24;;;;;;;6.20;4.67;;;;;;;1.83;100.00;151838.41;4968717;28;20988;-84
2023/11/27 01:26:51;;;;;;;7.90;4.30;;;;;;;1.83;100.00;151837.13;4992993;28;20544;-84
2023/11/27 01:29:21;;;;;;;4.93;4.37;;;;;;;1.83;100.00;151837.13;4994712;28;20446;-84
2023/11/27 01:31:48;;;;;;;4.87;3.70;;;;;;;1.81;100.00;151832.00;4974722;28;20425;-84
2023/11/27 01:34:15;;;;;;;6.10;4.37;;;;;;;1.80;100.00;151829.44;4992533;28;20895;-84
2023/11/27 01:36:42;;;;;;;5.37;3.67;;;;;;;1.80;100.00;151829.44;4991024;28;20992;-84
2023/11/27 01:39:08;;;;;;;6.07;4.30;;;;;;;1.78;100.00;151825.56;4994243;28;20457;-84
2023/11/27 01:41:36;;;;;;;4.93;4.10;;;;;;;1.77;100.00;151822.97;4975542;28;20500;-84
2023/11/27 01:44:03;;;;;;;5.27;3.57;;;;;;;1.78;100.00;151824.25;4986885;28;20457;-84
2023/11/27 01:46:30;;;;;;;4.17;3.30;;;;;;;1.77;100.00;151821.72;4980736;28;20457;-83
2023/11/27 01:48:57;;;;;;;6.73;4.07;;;;;;;1.76;100.00;151819.13;4999710;28;20461;-83
2023/11/27 01:51:25;;;;;;;4.80;3.40;;;;;;;1.73;100.00;151812.72;4991189;28;20580;-83
2023/11/27 01:53:53;;;;;;;6.07;3.90;;;;;;;1.74;100.00;151814.00;4986982;28;20484;-83
2023/11/27 01:56:21;;;;;;;5.30;3.97;;;;;;;1.72;100.00;151810.13;4989267;28;20453;-83
2023/11/27 01:58:50;;;;;;;4.07;3.67;;;;;;;1.72;100.00;151808.88;4997848;28;20468;-83
2023/11/27 02:01:17;;;;;;;4.30;3.47;;;;;;;1.71;100.00;151806.28;4990228;28;20537;-83
2023/11/27 02:03:44;;;;;;;4.10;3.60;;;;;;;1.70;100.00;151803.69;4975517;28;20807;-84
2023/11/27 02:06:10;;;;;;;4.00;3.17;;;;;;;1.70;100.00;151803.69;4971302;28;20465;-84
2023/11/27 02:08:37;;;;;;;5.67;3.67;;;;;;;1.68;100.00;151799.88;4996635;28;20512;-83
2023/11/27 02:11:04;;;;;;;4.53;3.97;;;;;;;1.67;100.00;151797.28;4978239;28;20460;-84
2023/11/27 02:13:32;;;;;;;6.03;4.20;;;;;;;1.70;100.00;151803.69;4973617;28;20500;-83
2023/11/27 02:16:00;;;;;;;4.57;3.93;;;;;;;1.68;100.00;151799.88;4973833;28;20453;-83
2023/11/27 02:18:26;;;;;;;4.80;3.33;;;;;;;1.69;100.00;151801.16;4995095;28;20533;-83
2023/11/27 02:20:53;;;;;;;4.73;3.23;;;;;;;1.70;100.00;151803.69;4988393;28;20495;-83
2023/11/27 02:23:21;;;;;;;4.50;3.40;;;;;;;1.70;100.00;151805.00;4990561;28;20457;-83
2023/11/27 02:25:48;;;;;;;4.10;3.07;;;;;;;1.69;100.00;151802.47;4974721;28;21054;-84
2023/11/27 02:28:15;;;;;;;4.33;3.67;;;;;;;1.70;100.00;151803.69;4975319;28;20458;-84
2023/11/27 02:30:41;;;;;;;5.30;3.57;;;;;;;1.68;100.00;151798.56;4992056;28;20456;-83
2023/11/27 02:33:08;;;;;;;6.13;3.30;;;;;;;1.69;100.00;151802.47;4990514;28;20560;-83
2023/11/27 02:35:34;;;;;;;3.53;3.20;;;;;;;1.69;100.00;151801.16;4991550;28;20446;-84
2023/11/27 02:38:01;;;;;;;4.23;2.80;;;;;;;1.70;100.00;151805.00;4988748;28;20477;-83
2023/11/27 02:40:30;;;;;;;4.47;3.47;;;;;;;1.70;100.00;151803.69;4989573;28;20805;-83
2023/11/27 02:42:56;;;;;;;3.27;2.60;;;;;;;1.71;100.00;151807.59;4988126;28;20515;-83
2023/11/27 02:45:23;;;;;;;3.30;3.00;;;;;;;1.73;100.00;151811.41;4989735;28;21209;-83
2023/11/27 02:47:51;;;;;;;6.57;3.60;;;;;;;1.75;100.00;151816.56;4991835;28;20461;-84
2023/11/27 02:50:18;;;;;;;4.00;3.20;;;;;;;1.77;100.00;151821.72;4994574;28;20465;-83
2023/11/27 02:52:45;;;;;;;6.00;3.17;;;;;;;1.75;100.00;151816.56;4988016;28;20445;-83
2023/11/27 02:55:11;;;;;;;6.50;3.13;;;;;;;1.77;100.00;151822.97;4985359;28;20465;-83
2023/11/27 02:57:39;;;;;;;4.50;3.20;;;;;;;1.79;100.00;151826.84;4972095;28;20487;-84
2023/11/27 03:00:07;;;;;;;5.73;3.10;;;;;;;1.78;100.00;151825.56;4987109;28;20980;-83
2023/11/27 03:02:34;;;;;;;3.90;3.30;;;;;;;1.81;100.00;151832.00;4990842;28;20965;-83
2023/11/27 03:05:00;;;;;;;5.40;3.20;;;;;;;1.80;100.00;151829.44;4994886;28;20465;-83
2023/11/27 03:07:27;;;;;;;5.17;2.70;;;;;;;1.80;100.00;151830.69;4992797;28;20430;-84
2023/11/27 03:09:54;;;;;;;3.17;2.67;;;;;;;1.81;100.00;151832.00;4986358;28;20450;-83
2023/11/27 03:12:20;;;;;;;3.73;2.90;;;;;;;1.82;100.00;151835.88;4973448;28;20461;-83
2023/11/27 03:14:48;;;;;;;2.80;2.40;;;;;;;1.84;100.00;151841.00;4987897;28;20549;-84
2023/11/27 03:17:15;;;;;;;3.83;2.93;;;;;;;1.85;100.00;151842.28;4990391;28;20572;-84
2023/11/27 03:19:41;;;;;;;3.53;2.40;;;;;;;1.86;100.00;151844.84;4989307;28;20454;-83
2023/11/27 03:22:08;;;;;;;4.67;2.73;;;;;;;1.87;100.00;151847.41;4983240;28;20510;-84
2023/11/27 03:24:35;;;;;;;4.83;2.60;;;;;;;1.85;100.00;151843.53;4985683;28;20543;-84
2023/11/27 03:27:02;;;;;;;3.87;2.60;;;;;;;1.85;100.00;151842.28;4988879;28;20870;-83
2023/11/27 03:29:29;;;;;;;2.97;2.60;;;;;;;1.87;100.00;151846.13;4988972;28;20556;-83
2023/11/27 03:31:57;;;;;;;4.63;3.20;;;;;;;1.85;100.00;151842.28;4990280;28;20528;-84
2023/11/27 03:34:24;;;;;;;3.37;2.60;;;;;;;1.86;100.00;151844.84;4988106;28;20457;-83
2023/11/27 03:36:51;;;;;;;6.53;2.60;;;;;;;1.87;100.00;151847.41;4988095;28;20484;-84
2023/11/27 03:39:18;;;;;;;3.80;2.50;;;;;;;1.87;100.00;151847.41;4990117;28;20457;-83
2023/11/27 03:41:45;;;;;;;4.70;2.50;;;;;;;1.85;100.00;151843.53;4985342;28;20458;-83
2023/11/27 03:44:13;;;;;;;3.50;2.30;;;;;;;1.88;100.00;151848.72;4990260;28;20548;-84
2023/11/27 03:46:40;;;;;;;2.97;2.20;;;;;;;1.85;100.00;151842.28;4987686;28;20576;-83
2023/11/27 03:49:08;;;;;;;5.20;2.87;;;;;;;1.85;100.00;151842.28;4999638;28;20505;-83
2023/11/27 03:51:34;;;;;;;4.10;2.83;;;;;;;1.87;100.00;151847.41;4988681;28;20496;-83
2023/11/27 03:54:01;;;;;;;2.80;2.43;;;;;;;1.87;100.00;151847.41;4984668;28;20927;-84
2023/11/27 03:56:28;;;;;;;3.60;2.63;;;;;;;1.85;100.00;151842.28;4984762;28;20477;-84
2023/11/27 03:58:54;;;;;;;3.13;2.10;;;;;;;1.85;100.00;151842.28;4987762;28;20871;-83
2023/11/27 04:01:21;;;;;;;3.07;2.50;;;;;;;1.83;100.00;151838.41;4990367;28;20438;-84
2023/11/27 04:03:48;;;;;;;3.63;2.57;;;;;;;1.83;100.00;151837.13;4988472;28;20449;-83
2023/11/27 04:06:23;;;;;;;2.97;2.10;;;;;;;1.82;100.00;151835.88;4986009;28;20461;-84
2023/11/27 04:08:50;;;;;;;3.40;2.33;;;;;;;1.82;100.00;151835.88;4988381;28;20520;-84
2023/11/27 04:11:18;;;;;;;2.67;2.00;;;;;;;1.83;100.00;151837.13;4993014;28;20491;-84
2023/11/27 04:13:45;;;;;;;3.10;2.20;;;;;;;1.81;100.00;151833.28;4990000;28;20453;-83
2023/11/27 04:16:12;;;;;;;3.93;2.27;;;;;;;1.78;100.00;151824.25;4986342;28;20460;-84
2023/11/27 04:18:38;;;;;;;2.80;2.00;;;;;;;1.78;100.00;151825.56;4971022;28;21027;-83
2023/11/27 04:21:07;;;;;;;3.13;2.60;;;;;;;1.74;100.00;151814.00;4986600;28;20541;-83
2023/11/27 04:23:35;;;;;;;2.77;2.20;;;;;;;1.76;100.00;151819.13;4992114;28;20454;-83
2023/11/27 04:26:02;;;;;;;3.23;2.67;;;;;;;1.75;100.00;151817.84;4970408;28;20454;-83
2023/11/27 04:28:28;;;;;;;2.10;1.90;;;;;;;1.74;100.00;151814.00;4981933;28;20458;-83
2023/11/27 04:30:56;;;;;;;3.50;2.50;;;;;;;1.74;100.00;151815.31;4989942;28;20462;-84
2023/11/27 04:33:22;;;;;;;3.30;2.70;;;;;;;1.76;100.00;151819.13;4985371;28;20462;-84
2023/11/27 04:35:49;;;;;;;3.27;1.93;;;;;;;1.73;100.00;151812.72;4988878;28;20822;-83
2023/11/27 04:38:16;;;;;;;2.67;1.77;;;;;;;1.70;100.00;151803.69;4987338;28;20470;-83
2023/11/27 04:40:44;;;;;;;4.20;2.37;;;;;;;1.73;100.00;151811.41;4986560;28;20460;-84
2023/11/27 04:43:11;;;;;;;3.67;2.33;;;;;;;1.71;100.00;151806.28;4987445;28;20499;-83
2023/11/27 04:45:37;;;;;;;2.40;2.00;;;;;;;1.67;100.00;151797.28;4983983;28;20489;-83
2023/11/27 04:48:04;;;;;;;2.67;1.87;;;;;;;1.66;100.00;151793.44;4985058;28;21251;-83
2023/11/27 04:50:31;;;;;;;5.63;2.40;;;;;;;1.62;100.00;151783.13;4988579;28;20501;-83
2023/11/27 04:52:57;;;;;;;3.30;2.37;;;;;;;1.63;100.00;151787.03;4982937;28;20489;-82
2023/11/27 04:55:24;;;;;;;3.30;2.27;;;;;;;1.62;100.00;151783.13;4987537;28;20453;-83
2023/11/27 04:57:52;;;;;;;2.23;1.90;;;;;;;1.62;100.00;151783.13;4982759;28;20491;-83
2023/11/27 05:00:18;;;;;;;3.13;2.30;;;;;;;1.61;100.00;151781.91;4982745;28;21053;-82
2023/11/27 05:02:45;;;;;;;3.43;2.00;;;;;;;1.63;100.00;151785.72;4966484;28;20466;-83
2023/11/27 05:05:14;;;;;;;5.93;2.30;;;;;;;1.64;100.00;151789.56;4985303;28;20446;-83
2023/11/27 05:07:41;;;;;;;2.53;1.90;;;;;;;1.63;100.00;151787.03;4967409;28;20501;-83
2023/11/27 05:10:08;;;;;;;2.67;2.00;;;;;;;1.63;100.00;151785.72;4982452;28;20511;-82
2023/11/27 05:12:35;;;;;;;2.93;2.20;;;;;;;1.62;100.00;151784.44;4981721;28;20456;-83
2023/11/27 05:15:02;;;;;;;5.00;2.50;;;;;;;1.63;100.00;151785.72;4982372;28;20445;-82
2023/11/27 05:17:29;;;;;;;2.80;2.03;;;;;;;1.61;100.00;151780.59;5000220;28;20543;-83
2023/11/27 05:19:56;;;;;;;2.73;2.00;;;;;;;1.60;100.00;151778.00;4984028;28;20509;-83
2023/11/27 05:22:23;;;;;;;2.60;1.97;;;;;;;1.58;100.00;151772.88;5003090;28;20458;-83
2023/11/27 05:24:49;;;;;;;4.07;2.60;;;;;;;1.56;100.00;151767.75;4993818;28;20464;-83
2023/11/27 05:27:16;;;;;;;2.37;1.90;;;;;;;1.56;100.00;151767.75;4978489;28;20457;-82
2023/11/27 05:29:42;;;;;;;2.80;2.03;;;;;;;1.54;100.00;151763.88;4995707;28;20514;-83
2023/11/27 05:32:10;;;;;;;3.20;2.27;;;;;;;1.54;100.00;151763.88;4991984;28;21085;-83
2023/11/27 05:34:37;;;;;;;2.87;2.43;;;;;;;1.53;100.00;151761.34;4979947;28;20452;-84
2023/11/27 05:37:06;;;;;;;3.00;2.30;;;;;;;1.54;100.00;151762.56;4978937;28;20477;-83
2023/11/27 05:39:33;;;;;;;2.57;2.17;;;;;;;1.53;100.00;151760.03;4991274;28;20470;-83
2023/11/27 05:42:02;;;;;;;4.63;2.30;;;;;;;1.54;100.00;151762.56;4993259;28;20462;-83
2023/11/27 05:44:28;;;;;;;3.80;2.47;;;;;;;1.56;100.00;151767.75;4985978;28;20473;-83
2023/11/27 05:46:55;;;;;;;3.27;2.37;;;;;;;1.55;100.00;151765.16;4966831;28;20465;-83
2023/11/27 05:49:23;;;;;;;2.77;2.20;;;;;;;1.54;100.00;151762.56;4987102;28;20512;-83
2023/11/27 05:51:51;;;;;;;2.53;1.80;;;;;;;1.53;100.00;151760.03;4987743;28;20449;-83
2023/11/27 05:54:17;;;;;;;4.17;2.77;;;;;;;1.54;100.00;151762.56;4986651;28;20987;-83
2023/11/27 05:56:44;;;;;;;3.70;2.80;;;;;;;1.52;100.00;151757.44;4989236;28;20461;-83
2023/11/27 05:59:11;;;;;;;3.60;2.43;;;;;;;1.52;100.00;151757.44;4989296;28;20520;-83
2023/11/27 06:01:37;;;;;;;4.13;3.07;;;;;;;1.51;100.00;151754.91;4986226;28;20461;-83
2023/11/27 06:04:04;;;;;;;3.23;2.30;;;;;;;1.51;100.00;151754.91;4988272;28;20504;-83
2023/11/27 06:06:32;;;;;;;4.40;2.70;;;;;;;1.52;100.00;151757.44;4991428;28;20457;-83
2023/11/27 06:08:58;;;;;;;3.90;2.80;;;;;;;1.50;100.00;151752.31;4992338;28;20445;-83
2023/11/27 06:11:25;;;;;;;3.87;2.60;;;;;;;1.50;100.00;151753.63;4994412;28;20945;-83
2023/11/27 06:13:52;;;;;;;3.57;2.33;;;;;;;1.51;100.00;151754.91;4998942;28;20959;-83
2023/11/27 06:16:18;;;;;;;5.63;2.90;;;;;;;1.51;100.00;151756.16;4995085;28;20472;-83
2023/11/27 06:18:45;;;;;;;4.60;2.90;;;;;;;1.51;100.00;151754.91;4992140;28;20473;-83
2023/11/27 06:21:12;;;;;;;3.40;3.00;;;;;;;1.51;100.00;151754.91;4991557;28;20548;-83
2023/11/27 06:23:39;;;;;;;3.30;2.60;;;;;;;1.50;100.00;151752.31;4997512;28;20546;-83
2023/11/27 06:26:07;;;;;;;4.30;3.47;;;;;;;1.51;100.00;151754.91;4992497;28;21061;-83
2023/11/27 06:28:33;;;;;;;3.37;2.97;;;;;;;1.49;100.00;151749.72;4978055;28;20464;-83
2023/11/27 06:31:00;;;;;;;4.63;3.30;;;;;;;1.49;100.00;151749.72;4992837;28;20456;-83
2023/11/27 06:33:27;;;;;;;4.23;3.00;;;;;;;1.47;100.00;151745.91;4999592;28;20847;-83
2023/11/27 06:35:53;;;;;;;5.80;4.03;;;;;;;1.44;100.00;151738.19;4995002;28;20458;-84
2023/11/27 06:38:20;;;;;;;6.70;3.97;;;;;;;1.45;100.00;151740.78;4998852;28;20499;-84
2023/11/27 06:40:48;;;;;;;3.70;3.23;;;;;;;1.45;100.00;151739.47;4995478;28;20442;-84
2023/11/27 06:43:15;;;;;;;4.93;3.87;;;;;;;1.45;100.00;151739.47;4994331;28;20877;-83
2023/11/27 06:45:41;;;;;;;5.50;3.87;;;;;;;1.45;100.00;151739.47;4987874;28;20453;-83
2023/11/27 06:48:08;;;;;;;6.33;3.70;;;;;;;1.45;100.00;151739.47;4970793;28;20496;-83
2023/11/27 06:50:37;;;;;;;4.53;4.03;;;;;;;1.47;100.00;151744.59;4998492;28;20811;-83
2023/11/27 06:53:04;;;;;;;4.73;4.07;;;;;;;1.46;100.00;151743.31;4994122;28;21078;-83
2023/11/27 06:55:30;;;;;;;5.07;3.80;;;;;;;1.46;100.00;151742.00;4995590;28;20462;-83
2023/11/27 06:57:58;;;;;;;4.50;3.97;;;;;;;1.48;100.00;151747.19;4998266;28;20465;-83
2023/11/27 07:00:25;;;;;;;6.17;3.90;;;;;;;1.49;100.00;151749.72;4994672;28;20461;-83
2023/11/27 07:02:51;;;;;;;4.93;3.83;;;;;;;1.49;100.00;151749.72;4988247;28;20780;-83
2023/11/27 07:05:18;;;;;;;4.60;3.40;;;;;;;1.49;100.00;151751.03;4994753;28;20548;-83
2023/11/27 07:07:44;;;;;;;5.77;3.57;;;;;;;1.50;100.00;151752.31;4996529;28;20458;-83
2023/11/27 07:10:13;;;;;;;5.40;4.10;;;;;;;1.52;100.00;151757.44;4989047;28;20970;-83
2023/11/27 07:12:40;;;;;;;6.60;3.87;;;;;;;1.51;100.00;151756.16;4993621;28;20975;-83
2023/11/27 07:15:10;;;;;;;5.67;3.53;;;;;;;1.50;100.00;151753.63;4970654;28;20480;-83
2023/11/27 07:17:37;;;;;;;5.90;4.17;;;;;;;1.53;100.00;151760.03;4992927;28;20490;-83
2023/11/27 07:20:05;;;;;;;6.43;4.77;;;;;;;1.53;100.00;151760.03;4992661;28;20579;-83
2023/11/27 07:22:32;;;;;;;6.93;4.70;;;;;;;1.54;100.00;151762.56;4988692;28;20465;-83
2023/11/27 07:24:58;;;;;;;5.40;3.57;;;;;;;1.55;100.00;151765.16;4992482;28;20448;-83
2023/11/27 07:27:26;;;;;;;5.53;3.50;;;;;;;1.57;100.00;151770.28;4988080;28;20461;-84
2023/11/27 07:29:53;;;;;;;6.07;4.77;;;;;;;1.58;100.00;151772.88;4995217;28;20445;-83
2023/11/27 07:32:21;;;;;;;5.43;3.70;;;;;;;1.59;100.00;151775.47;4985657;28;20857;-83
2023/11/27 07:34:48;;;;;;;4.47;3.57;;;;;;;1.63;100.00;151785.72;4991123;28;20445;-82
2023/11/27 07:37:14;;;;;;;9.13;4.10;;;;;;;1.63;100.00;151785.72;4990605;28;20461;-83
2023/11/27 07:39:42;;;;;;;4.67;4.20;;;;;;;1.63;100.00;151785.72;4994044;28;20611;-83
2023/11/27 07:42:09;;;;;;;5.03;3.90;;;;;;;1.66;100.00;151793.44;4989861;28;21047;-83
2023/11/27 07:44:35;;;;;;;6.33;4.23;;;;;;;1.69;100.00;151801.16;4991749;28;20468;-83
2023/11/27 07:47:02;;;;;;;5.20;4.60;;;;;;;1.70;100.00;151803.69;4992011;28;22100;-84
2023/11/27 07:49:30;;;;;;;10.83;4.97;;;;;;;1.71;100.00;151806.28;4995995;28;20465;-83
2023/11/27 07:51:58;;;;;;;5.50;3.90;;;;;;;1.73;100.00;151811.41;4990409;28;20466;-83
2023/11/27 07:54:24;;;;;;;4.93;3.60;;;;;;;1.75;100.00;151817.84;4989000;28;20515;-84
2023/11/27 07:56:51;;;;;;;8.03;5.10;;;;;;;1.79;100.00;151826.84;4990933;28;20498;-83
2023/11/27 07:59:18;;;;;;;5.47;3.57;;;;;;;1.80;100.00;151830.69;4982770;28;20476;-83
2023/11/27 08:01:45;;;;;;;6.43;4.53;;;;;;;1.82;100.00;151834.56;4990597;28;20545;-83
2023/11/27 08:04:12;;;;;;;6.30;4.33;;;;;;;1.87;100.00;151846.13;4987664;28;20531;-83
2023/11/27 08:06:39;;;;;;;4.77;4.23;;;;;;;1.89;100.00;151851.25;4987049;28;20464;-83
2023/11/27 08:09:07;;;;;;;6.40;4.00;;;;;;;1.91;100.00;151857.69;4992252;28;20462;-82
2023/11/27 08:11:35;;;;;;;5.60;3.60;;;;;;;1.92;100.00;151860.28;4986321;28;20453;-83
2023/11/27 08:14:01;;;;;;;6.67;4.37;;;;;;;1.96;100.00;151870.53;4989970;28;20493;-83
2023/11/27 08:16:28;;;;;;;5.40;3.63;;;;;;;1.98;100.00;151875.72;4991577;28;20891;-83
2023/11/27 08:18:54;;;;;;;4.70;3.63;;;;;;;2.00;100.00;151880.84;4993106;28;20480;-83
2023/11/27 08:21:21;;;;;;;6.20;4.57;;;;;;;2.01;100.00;151883.44;4992838;28;20457;-83
2023/11/27 08:23:49;;;;;;;6.00;3.97;;;;;;;2.05;100.00;151893.69;4989930;28;20468;-83
2023/11/27 08:26:15;;;;;;;5.43;4.17;;;;;;;2.08;100.00;151900.13;4992254;28;20458;-83
2023/11/27 08:28:42;;;;;;;6.20;5.13;;;;;;;2.12;100.00;151911.69;4990520;28;20460;-83
2023/11/27 08:31:10;;;;;;;4.10;3.60;;;;;;;2.13;100.00;151914.25;4998407;28;20592;-83
2023/11/27 08:33:37;;;;;;;5.73;4.10;;;;;;;2.15;100.00;151919.41;4992269;28;20461;-83
2023/11/27 08:36:04;;;;;;;6.60;4.20;;;;;;;2.17;100.00;151924.53;4993604;28;20528;-83
2023/11/27 08:38:31;;;;;;;12.33;4.27;;;;;;;2.18;100.00;151927.13;4990072;28;20485;-83
2023/11/27 08:40:59;;;;;;;4.87;3.63;;;;;;;2.21;100.00;151933.53;4964578;28;20445;-83
2023/11/27 08:43:26;;;;;;;5.50;3.97;;;;;;;2.22;100.00;151937.44;4993202;28;20468;-83
2023/11/27 08:45:53;;;;;;;5.47;4.00;;;;;;;2.24;100.00;151942.56;4992541;28;20738;-82
2023/11/27 08:48:20;;;;;;;6.20;3.87;;;;;;;2.26;100.00;151947.69;4994606;28;20469;-83
2023/11/27 08:50:47;;;;;;;8.93;4.87;;;;;;;2.28;100.00;151952.81;4985423;28;20896;-83
2023/11/27 08:53:13;;;;;;;4.77;3.70;;;;;;;2.30;100.00;151957.94;4980753;28;20572;-84
2023/11/27 08:56:19;;;;;;;6.07;4.30;;;;;;;2.33;100.00;151965.66;4987007;28;20527;-84
2023/11/27 08:59:23;;;;;;;7.80;3.73;;;;;;;2.33;100.00;151964.44;4989330;28;20484;-84
2023/11/27 09:01:51;;;;;;;6.67;3.90;;;;;;;2.37;100.00;151974.69;4991152;28;20557;-84
2023/11/27 09:04:18;;;;;;;6.37;4.53;;;;;;;2.37;100.00;151974.69;4974410;28;21066;-83
2023/11/27 09:06:45;;;;;;;5.97;4.17;;;;;;;2.41;100.00;151984.97;4990835;28;20456;-83
2023/11/27 09:09:12;;;;;;;4.90;3.97;;;;;;;2.43;100.00;151991.44;4972460;28;20461;-83
2023/11/27 09:11:40;;;;;;;8.07;3.80;;;;;;;2.44;100.00;151993.97;4984363;28;20463;-83
2023/11/27 09:14:06;;;;;;;5.67;4.07;;;;;;;2.47;100.00;152000.41;4983200;28;20456;-83
2023/11/27 09:16:33;;;;;;;5.20;4.00;;;;;;;2.51;100.00;152009.41;4987747;28;20484;-84
2023/11/27 09:19:00;;;;;;;5.80;4.00;;;;;;;2.55;100.00;152019.69;4985466;28;20825;-83
2023/11/27 09:21:26;;;;;;;4.80;3.93;;;;;;;2.58;100.00;152027.41;4986813;28;20484;-83
2023/11/27 09:23:54;;;;;;;4.37;3.20;;;;;;;2.58;100.00;152027.41;4987538;28;21042;-83
2023/11/27 09:26:20;;;;;;;6.30;3.90;;;;;;;2.62;100.00;152037.72;4984794;28;20448;-83
2023/11/27 09:28:48;;;;;;;4.63;3.40;;;;;;;2.68;100.00;152053.13;4989654;28;20492;-83
2023/11/27 09:31:15;;;;;;;5.07;3.67;;;;;;;2.72;100.00;152064.75;4992627;28;20456;-84
2023/11/27 09:33:42;;;;;;;6.70;4.33;;;;;;;2.76;100.00;152073.72;4992954;28;20469;-84
2023/11/27 09:36:14;;;;;;;4.03;3.30;;;;;;;2.81;100.00;152086.56;4995031;28;20457;-84
2023/11/27 09:38:41;;;;;;;7.73;3.67;;;;;;;2.85;100.00;152098.19;4988219;28;20512;-84
2023/11/27 09:41:08;;;;;;;4.57;3.10;;;;;;;2.89;100.00;152107.16;4991633;28;20889;-83
2023/11/27 09:43:36;;;;;;;4.30;3.17;;;;;;;2.96;100.00;152125.19;4983142;28;21016;-83
2023/11/27 09:46:07;;;;;;;4.10;3.10;;;;;;;2.98;100.00;152130.31;4983933;28;20456;-83
2023/11/27 09:48:34;;;;;;;3.60;2.90;;;;;;;3.00;100.00;152136.75;4991162;28;20460;-83
2023/11/27 09:51:06;;;;;;;3.43;2.90;;;;;;;3.06;100.00;152150.91;4995793;28;20460;-83
2023/11/27 09:53:39;;;;;;;5.10;3.60;;;;;;;3.08;100.00;152157.34;4994149;28;20490;-83
2023/11/27 09:56:07;;;;;;;4.07;2.93;;;;;;;3.12;100.00;152165.06;4973168;28;20449;-84
2023/11/27 09:58:36;;;;;;;3.50;2.60;;;;;;;3.15;100.00;152174.03;4976654;28;20454;-83
2023/11/27 10:01:07;;;;;;;3.43;2.73;;;;;;;3.19;100.00;152183.06;4978264;28;20478;-83
2023/11/27 10:03:36;;;;;;;3.13;2.50;;;;;;;3.22;100.00;152192.09;4962597;28;20465;-83
2023/11/27 10:06:06;;;;;;;4.10;3.10;;;;;;;3.25;100.00;152199.81;4977881;28;20445;-83
2023/11/27 10:08:33;;;;;;;4.90;3.00;;;;;;;3.28;100.00;152207.56;4994535;28;20458;-83
2023/11/27 10:10:59;;;;;;;3.10;2.60;;;;;;;3.33;100.00;152220.41;4961223;28;20459;-83
2023/11/27 10:13:34;;;;;;;2.63;2.10;;;;;;;3.36;100.00;152228.09;4977777;28;20468;-83
2023/11/27 10:16:04;;;;;;;4.00;2.73;;;;;;;3.36;100.00;152228.09;4977147;28;20456;-83
2023/11/27 10:18:32;;;;;;;3.40;2.60;;;;;;;3.37;100.00;152229.41;4978048;28;20453;-83
2023/11/27 10:20:59;;;;;;;2.33;2.10;;;;;;;3.42;100.00;152243.56;4993476;28;20929;-83
2023/11/27 10:23:28;;;;;;;4.33;2.57;;;;;;;3.45;100.00;152250.00;4978723;28;21165;-83
2023/11/27 10:25:58;;;;;;;2.87;2.23;;;;;;;3.49;100.00;152261.59;4977319;28;22610;-83
2023/11/27 10:28:26;;;;;;;3.43;1.93;;;;;;;3.53;100.00;152270.59;4975600;28;20478;-83
2023/11/27 10:30:53;;;;;;;2.77;2.20;;;;;;;3.55;100.00;152277.03;4972543;28;20454;-83
2023/11/27 10:33:22;;;;;;;4.30;2.63;;;;;;;3.57;100.00;152282.16;4977233;28;20454;-83
2023/11/27 10:35:55;;;;;;;4.80;2.73;;;;;;;3.58;100.00;152284.75;4981862;28;20457;-84
2023/11/27 10:38:22;;;;;;;2.70;1.97;;;;;;;3.60;100.00;152289.88;4982450;28;20460;-83
2023/11/27 10:40:49;;;;;;;2.97;2.43;;;;;;;3.62;100.00;152295.06;4985977;28;20517;-84
2023/11/27 10:43:16;;;;;;;5.83;3.13;;;;;;;3.65;100.00;152302.75;4987143;28;20458;-83
2023/11/27 10:45:44;;;;;;;4.40;2.73;;;;;;;3.67;100.00;152307.94;4996394;28;20462;-83
2023/11/27 10:48:12;;;;;;;4.10;2.80;;;;;;;3.67;100.00;152306.66;4978533;28;20553;-83
2023/11/27 10:50:41;;;;;;;3.10;2.27;;;;;;;3.69;100.00;152311.78;4968271;28;20457;-83
2023/11/27 10:53:10;;;;;;;2.70;1.93;;;;;;;3.70;100.00;152314.38;4980832;28;21068;-82
2023/11/27 10:55:37;;;;;;;3.10;1.83;;;;;;;3.72;100.00;152318.22;4996541;28;20452;-83
2023/11/27 10:58:07;;;;;;;2.60;1.80;;;;;;;3.73;100.00;152320.81;4993773;28;20449;-83
2023/11/27 11:00:39;;;;;;;3.00;2.30;;;;;;;3.77;100.00;152332.38;4996583;28;20472;-83
2023/11/27 11:03:14;;;;;;;3.20;2.10;;;;;;;3.78;100.00;152333.69;4997490;28;20460;-83
2023/11/27 11:05:44;;;;;;;3.40;2.60;;;;;;;3.82;100.00;152343.97;4996065;28;20455;-83
2023/11/27 11:08:12;;;;;;;2.67;2.20;;;;;;;3.89;100.00;152363.25;4994900;28;20449;-83
2023/11/27 11:10:40;;;;;;;3.10;2.37;;;;;;;3.98;100.00;152385.16;4997154;28;20457;-81
2023/11/27 11:13:12;;;;;;;3.10;2.10;;;;;;;3.99;100.00;152389.06;4994909;28;20560;-83
2023/11/27 11:15:45;;;;;;;3.77;2.10;;;;;;;4.02;100.00;152395.50;4994306;28;20459;-82
2023/11/27 11:18:14;;;;;;;4.30;2.63;;;;;;;4.03;100.00;152398.03;4995349;28;20854;-82
2023/11/27 11:20:54;;;;;;;3.47;2.10;;;;;;;4.09;100.00;152413.50;4995799;28;20474;-82
2023/11/27 11:23:28;;;;;;;3.33;2.37;;;;;;;4.11;100.00;152418.66;4995911;28;20446;-83
2023/11/27 11:26:22;;;;;;;3.13;2.00;;;;;;;4.15;100.00;152430.28;4994455;28;21200;-82